Metar z pełnej godziny Komunikat METAR ze strony awiacja.imgw.pl Metar G00 EPKK METAR EPKK 200200Z 07002KT CAVOK 16/15 Q1018 =